Terminal Aerodrome Forecast
Issued by NWS

Home | Current Version | Previous Version | Text Only | Print | Product List | Glossary On
Versions: 1 2 3 4 5 6 7 8 9 10 11 12 13 14 15 16 17
920
FTUS46 KPDT 242320
TAFRDM
TAF
KRDM 242320Z 2500/2524 34011KT P6SM BKN050 BKN100
     FM250400 31005KT P6SM SCT050 BKN100
     FM250800 VRB04KT P6SM SCT100
     FM251900 33007KT P6SM SCT120=

USA.gov is the U.S. government's official web portal to all federal, state and local government web resources and services.